This is the latest recevied weather packets stored in our database for station/object WA2TQI. If no packets are shown the sender has not sent any weather packets the latest 10 day(s).
| Time | Temp. | Humidity | Pressure | Rain* | Wind** | Luminosity | Snow |
|---|---|---|---|---|---|---|---|
| 1777889576 | 7.78° C | 91% | 1016.6 hPa | 0 mm | - | - | - |
| 1777889274 | 7.78° C | 90% | 1016.6 hPa | 0 mm | - | - | - |
| 1777888971 | 7.78° C | 90% | 1016.6 hPa | 0 mm | - | - | - |
| 1777887758 | 8.33° C | 88% | 1016.5 hPa | 0 mm | - | - | - |
| 1777887455 | 8.33° C | 87% | 1016.7 hPa | 0 mm | - | - | - |
| 1777887150 | 7.78° C | 89% | 1016.5 hPa | 0 mm | - | - | - |
| 1777886846 | 7.22° C | 90% | 1016.4 hPa | 0 mm | - | - | - |
| 1777886542 | 6.67° C | 91% | 1016.6 hPa | 0 mm | - | - | - |
| 1777886240 | 6.67° C | 91% | 1016.5 hPa | 0 mm | - | - | - |
| 1777885938 | 6.11° C | 91% | 1016.5 hPa | 0 mm | - | - | - |
| 1777885637 | 6.11° C | 92% | 1016.6 hPa | 0 mm | - | - | - |
| 1777885334 | 6.11° C | 92% | 1016.5 hPa | 0 mm | - | - | - |
| 1777885033 | 5.56° C | 92% | 1016.4 hPa | 0 mm | - | - | - |
| 1777884728 | 5.56° C | 92% | 1016.4 hPa | 0 mm | - | - | - |
| 1777884121 | 5.56° C | 91% | 1016.5 hPa | 0 mm | - | - | - |
| 1777883819 | 5.56° C | 91% | 1016.4 hPa | 0 mm | - | - | - |
| 1777883515 | 5.56° C | 91% | 1016.4 hPa | 0 mm | - | - | - |
| 1777883212 | 5.56° C | 90% | 1016.2 hPa | 0 mm | - | - | - |
| 1777882908 | 5.56° C | 90% | 1016.4 hPa | 0 mm | - | - | - |
| 1777882605 | 5.56° C | 90% | 1016.4 hPa | 0 mm | - | - | - |
| 1777882301 | 5.56° C | 90% | 1016.1 hPa | 0 mm | - | - | - |
| 1777881997 | 5° C | 93% | 1016.3 hPa | 0 mm | - | - | - |
| 1777881694 | 5° C | 93% | 1016.4 hPa | 0 mm | - | - | - |
| 1777881391 | 4.44° C | 92% | 1016.4 hPa | 0 mm | - | - | - |
| 1777881088 | 5° C | 92% | 1016.5 hPa | 0 mm | - | - | - |
* Rain latest hour (hover to see other rain measurements)
** Current wind speed in m/s (hover to see current wind gust speed)